sensor_id;sensor_type;location;lat;lon;timestamp;pressure;altitude;pressure_sealevel;temperature
11926;BMP180;6022;48.768;18.608;2023-12-20T00:01:25;98365.94;;;-1.46
11926;BMP180;6022;48.768;18.608;2023-12-20T00:03:52;98364.34;;;-1.50
11926;BMP180;6022;48.768;18.608;2023-12-20T00:06:20;98360.38;;;-1.58
11926;BMP180;6022;48.768;18.608;2023-12-20T00:08:47;98357.91;;;-1.60
11926;BMP180;6022;48.768;18.608;2023-12-20T00:11:14;98350.69;;;-1.73
11926;BMP180;6022;48.768;18.608;2023-12-20T00:13:41;98355.63;;;-1.70
11926;BMP180;6022;48.768;18.608;2023-12-20T00:16:09;98347.41;;;-1.75
11926;BMP180;6022;48.768;18.608;2023-12-20T00:18:36;98359.25;;;-1.89
11926;BMP180;6022;48.768;18.608;2023-12-20T00:21:04;98345.41;;;-2.06
11926;BMP180;6022;48.768;18.608;2023-12-20T00:23:32;98341.31;;;-2.09
11926;BMP180;6022;48.768;18.608;2023-12-20T00:25:59;98336.31;;;-2.06
11926;BMP180;6022;48.768;18.608;2023-12-20T00:28:26;98332.03;;;-1.96
11926;BMP180;6022;48.768;18.608;2023-12-20T00:30:53;98331.16;;;-1.94
11926;BMP180;6022;48.768;18.608;2023-12-20T00:33:21;98330.28;;;-1.91
11926;BMP180;6022;48.768;18.608;2023-12-20T00:35:48;98331.84;;;-1.88
11926;BMP180;6022;48.768;18.608;2023-12-20T00:38:15;98331.16;;;-1.95
11926;BMP180;6022;48.768;18.608;2023-12-20T00:40:42;98326.06;;;-1.88
11926;BMP180;6022;48.768;18.608;2023-12-20T00:43:09;98309.53;;;-1.89
11926;BMP180;6022;48.768;18.608;2023-12-20T00:45:37;98291.44;;;-1.97
11926;BMP180;6022;48.768;18.608;2023-12-20T00:48:04;98296.25;;;-1.88
11926;BMP180;6022;48.768;18.608;2023-12-20T00:50:32;98296.16;;;-1.82
11926;BMP180;6022;48.768;18.608;2023-12-20T00:52:59;98285.34;;;-1.80
11926;BMP180;6022;48.768;18.608;2023-12-20T00:55:26;98285.28;;;-1.77
11926;BMP180;6022;48.768;18.608;2023-12-20T00:57:53;98291.03;;;-1.75
11926;BMP180;6022;48.768;18.608;2023-12-20T01:00:21;98286.06;;;-1.73
11926;BMP180;6022;48.768;18.608;2023-12-20T01:02:48;98291.91;;;-1.76
11926;BMP180;6022;48.768;18.608;2023-12-20T01:05:18;98287.75;;;-1.75
11926;BMP180;6022;48.768;18.608;2023-12-20T01:07:46;98282.78;;;-1.75
11926;BMP180;6022;48.768;18.608;2023-12-20T01:10:14;98287.78;;;-1.78
11926;BMP180;6022;48.768;18.608;2023-12-20T01:12:41;98281.16;;;-1.78
11926;BMP180;6022;48.768;18.608;2023-12-20T01:15:09;98278.69;;;-1.78
11926;BMP180;6022;48.768;18.608;2023-12-20T01:17:36;98271.25;;;-1.79
11926;BMP180;6022;48.768;18.608;2023-12-20T01:20:03;98272.09;;;-1.82
11926;BMP180;6022;48.768;18.608;2023-12-20T01:22:31;98267.19;;;-1.85
11926;BMP180;6022;48.768;18.608;2023-12-20T01:24:58;98263.13;;;-1.88
11926;BMP180;6022;48.768;18.608;2023-12-20T01:27:25;98258.19;;;-1.90
11926;BMP180;6022;48.768;18.608;2023-12-20T01:29:52;98260.69;;;-1.91
11926;BMP180;6022;48.768;18.608;2023-12-20T01:32:19;98259.09;;;-1.94
11926;BMP180;6022;48.768;18.608;2023-12-20T01:34:47;98263.25;;;-1.94
11926;BMP180;6022;48.768;18.608;2023-12-20T01:37:15;98254.16;;;-1.97
11926;BMP180;6022;48.768;18.608;2023-12-20T01:39:42;98247.59;;;-1.99
11926;BMP180;6022;48.768;18.608;2023-12-20T01:42:10;98246.78;;;-2.00
11926;BMP180;6022;48.768;18.608;2023-12-20T01:44:37;98242.63;;;-2.01
11926;BMP180;6022;48.768;18.608;2023-12-20T01:47:04;98236.09;;;-2.05
11926;BMP180;6022;48.768;18.608;2023-12-20T01:49:31;98236.09;;;-2.06
11926;BMP180;6022;48.768;18.608;2023-12-20T01:51:59;98227.00;;;-2.06
11926;BMP180;6022;48.768;18.608;2023-12-20T01:54:26;98222.09;;;-2.10
11926;BMP180;6022;48.768;18.608;2023-12-20T01:56:53;98217.22;;;-2.15
11926;BMP180;6022;48.768;18.608;2023-12-20T01:59:21;98220.53;;;-2.16
11926;BMP180;6022;48.768;18.608;2023-12-20T02:01:48;98212.28;;;-2.16
11926;BMP180;6022;48.768;18.608;2023-12-20T02:04:16;98200.13;;;-2.32
11926;BMP180;6022;48.768;18.608;2023-12-20T02:06:46;98189.50;;;-2.40
11926;BMP180;6022;48.768;18.608;2023-12-20T02:09:14;98187.03;;;-2.42
11926;BMP180;6022;48.768;18.608;2023-12-20T02:11:43;98187.88;;;-2.41
11926;BMP180;6022;48.768;18.608;2023-12-20T02:14:10;98180.38;;;-2.40
11926;BMP180;6022;48.768;18.608;2023-12-20T02:16:37;98182.84;;;-2.38
11926;BMP180;6022;48.768;18.608;2023-12-20T02:19:14;98169.66;;;-2.40
11926;BMP180;6022;48.768;18.608;2023-12-20T02:21:42;98164.13;;;-2.56
11926;BMP180;6022;48.768;18.608;2023-12-20T02:24:09;98163.25;;;-2.55
11926;BMP180;6022;48.768;18.608;2023-12-20T02:26:37;98164.09;;;-2.54
11926;BMP180;6022;48.768;18.608;2023-12-20T02:29:04;98154.09;;;-2.51
11926;BMP180;6022;48.768;18.608;2023-12-20T02:31:31;98151.63;;;-2.51
11926;BMP180;6022;48.768;18.608;2023-12-20T02:33:58;98148.31;;;-2.50
11926;BMP180;6022;48.768;18.608;2023-12-20T02:36:26;98149.97;;;-2.51
11926;BMP180;6022;48.768;18.608;2023-12-20T02:38:53;98145.03;;;-2.52
11926;BMP180;6022;48.768;18.608;2023-12-20T02:41:20;98144.97;;;-2.49
11926;BMP180;6022;48.768;18.608;2023-12-20T02:43:48;98141.69;;;-2.51
11926;BMP180;6022;48.768;18.608;2023-12-20T02:46:17;98144.94;;;-2.46
11926;BMP180;6022;48.768;18.608;2023-12-20T02:48:44;98135.03;;;-2.49
11926;BMP180;6022;48.768;18.608;2023-12-20T02:51:12;98138.38;;;-2.50
11926;BMP180;6022;48.768;18.608;2023-12-20T02:53:39;98135.03;;;-2.49
11926;BMP180;6022;48.768;18.608;2023-12-20T02:56:06;98138.41;;;-2.53
11926;BMP180;6022;48.768;18.608;2023-12-20T02:58:33;98127.78;;;-2.60
11926;BMP180;6022;48.768;18.608;2023-12-20T03:01:00;98136.06;;;-2.61
11926;BMP180;6022;48.768;18.608;2023-12-20T03:03:28;98136.03;;;-2.59
11926;BMP180;6022;48.768;18.608;2023-12-20T03:05:55;98131.06;;;-2.59
11926;BMP180;6022;48.768;18.608;2023-12-20T03:08:22;98129.50;;;-2.63
11926;BMP180;6022;48.768;18.608;2023-12-20T03:10:50;98129.59;;;-2.67
11926;BMP180;6022;48.768;18.608;2023-12-20T03:13:17;98125.44;;;-2.67
11926;BMP180;6022;48.768;18.608;2023-12-20T03:15:45;98130.38;;;-2.65
11926;BMP180;6022;48.768;18.608;2023-12-20T03:18:13;98130.50;;;-2.73
11926;BMP180;6022;48.768;18.608;2023-12-20T03:20:40;98139.78;;;-2.85
11926;BMP180;6022;48.768;18.608;2023-12-20T03:23:08;98127.41;;;-2.87
11926;BMP180;6022;48.768;18.608;2023-12-20T03:25:35;98125.69;;;-2.83
11926;BMP180;6022;48.768;18.608;2023-12-20T03:28:03;98123.22;;;-2.83
11926;BMP180;6022;48.768;18.608;2023-12-20T03:30:30;98122.41;;;-2.84
11926;BMP180;6022;48.768;18.608;2023-12-20T03:32:57;98115.84;;;-2.88
11926;BMP180;6022;48.768;18.608;2023-12-20T03:35:24;98109.31;;;-2.92
11926;BMP180;6022;48.768;18.608;2023-12-20T03:37:52;98097.72;;;-2.93
11926;BMP180;6022;48.768;18.608;2023-12-20T03:40:19;98108.47;;;-2.92
11926;BMP180;6022;48.768;18.608;2023-12-20T03:42:46;98099.31;;;-2.89
11926;BMP180;6022;48.768;18.608;2023-12-20T03:45:13;98109.19;;;-2.86
11926;BMP180;6022;48.768;18.608;2023-12-20T03:47:40;98099.22;;;-2.83
11926;BMP180;6022;48.768;18.608;2023-12-20T03:50:08;98109.09;;;-2.80
11926;BMP180;6022;48.768;18.608;2023-12-20T03:52:35;98107.44;;;-2.79
11926;BMP180;6022;48.768;18.608;2023-12-20T03:55:03;98105.72;;;-2.76
11926;BMP180;6022;48.768;18.608;2023-12-20T03:57:30;98098.28;;;-2.76
11926;BMP180;6022;48.768;18.608;2023-12-20T03:59:57;98100.75;;;-2.76
11926;BMP180;6022;48.768;18.608;2023-12-20T04:02:24;98104.03;;;-2.74
11926;BMP180;6022;48.768;18.608;2023-12-20T04:04:51;98100.88;;;-2.82
11926;BMP180;6022;48.768;18.608;2023-12-20T04:07:20;98098.38;;;-2.82
11926;BMP180;6022;48.768;18.608;2023-12-20T04:09:49;98103.38;;;-2.83
11926;BMP180;6022;48.768;18.608;2023-12-20T04:12:16;98102.56;;;-2.84
11926;BMP180;6022;48.768;18.608;2023-12-20T04:14:43;98098.41;;;-2.83
11926;BMP180;6022;48.768;18.608;2023-12-20T04:17:11;98105.88;;;-2.85
11926;BMP180;6022;48.768;18.608;2023-12-20T04:19:38;98105.06;;;-2.87
11926;BMP180;6022;48.768;18.608;2023-12-20T04:22:05;98109.34;;;-2.95
11926;BMP180;6022;48.768;18.608;2023-12-20T04:24:32;98114.41;;;-3.01
11926;BMP180;6022;48.768;18.608;2023-12-20T04:27:00;98094.59;;;-3.03
11926;BMP180;6022;48.768;18.608;2023-12-20T04:29:28;98092.88;;;-2.99
11926;BMP180;6022;48.768;18.608;2023-12-20T04:31:55;98096.16;;;-2.98
11926;BMP180;6022;48.768;18.608;2023-12-20T04:34:23;98105.25;;;-2.97
11926;BMP180;6022;48.768;18.608;2023-12-20T04:36:50;98095.31;;;-2.96
11926;BMP180;6022;48.768;18.608;2023-12-20T04:39:17;98094.47;;;-2.95
11926;BMP180;6022;48.768;18.608;2023-12-20T04:41:45;98086.19;;;-2.94
11926;BMP180;6022;48.768;18.608;2023-12-20T04:44:12;98078.75;;;-2.95
11926;BMP180;6022;48.768;18.608;2023-12-20T04:46:39;98082.91;;;-2.96
11926;BMP180;6022;48.768;18.608;2023-12-20T04:49:06;98078.00;;;-2.99
11926;BMP180;6022;48.768;18.608;2023-12-20T04:51:34;98068.09;;;-3.02
11926;BMP180;6022;48.768;18.608;2023-12-20T04:54:02;98071.44;;;-3.02
11926;BMP180;6022;48.768;18.608;2023-12-20T04:56:29;98070.53;;;-2.97
11926;BMP180;6022;48.768;18.608;2023-12-20T04:58:56;98058.91;;;-2.94
11926;BMP180;6022;48.768;18.608;2023-12-20T05:01:23;98059.75;;;-2.96
11926;BMP180;6022;48.768;18.608;2023-12-20T05:03:51;98070.44;;;-2.93
11926;BMP180;6022;48.768;18.608;2023-12-20T05:06:18;98066.28;;;-2.91
11926;BMP180;6022;48.768;18.608;2023-12-20T05:08:45;98059.63;;;-2.89
11926;BMP180;6022;48.768;18.608;2023-12-20T05:11:12;98055.50;;;-2.88
11926;BMP180;6022;48.768;18.608;2023-12-20T05:13:41;98053.75;;;-2.85
11926;BMP180;6022;48.768;18.608;2023-12-20T05:16:16;98066.94;;;-2.81
11926;BMP180;6022;48.768;18.608;2023-12-20T05:18:48;98055.31;;;-2.78
11926;BMP180;6022;48.768;18.608;2023-12-20T05:21:17;98047.84;;;-2.78
11926;BMP180;6022;48.768;18.608;2023-12-20T05:23:45;98052.81;;;-2.76
11926;BMP180;6022;48.768;18.608;2023-12-20T05:26:12;98054.41;;;-2.74
11926;BMP180;6022;48.768;18.608;2023-12-20T05:28:39;98052.78;;;-2.75
11926;BMP180;6022;48.768;18.608;2023-12-20T05:31:07;98075.91;;;-2.73
11926;BMP180;6022;48.768;18.608;2023-12-20T05:33:34;98071.72;;;-2.69
11926;BMP180;6022;48.768;18.608;2023-12-20T05:36:02;98074.13;;;-2.66
11926;BMP180;6022;48.768;18.608;2023-12-20T05:38:29;98084.84;;;-2.66
11926;BMP180;6022;48.768;18.608;2023-12-20T05:40:57;98090.56;;;-2.61
11926;BMP180;6022;48.768;18.608;2023-12-20T05:43:25;98085.56;;;-2.58
11926;BMP180;6022;48.768;18.608;2023-12-20T05:45:52;98074.72;;;-2.54
11926;BMP180;6022;48.768;18.608;2023-12-20T05:48:19;98078.78;;;-2.50
11926;BMP180;6022;48.768;18.608;2023-12-20T05:50:46;98091.94;;;-2.45
11926;BMP180;6022;48.768;18.608;2023-12-20T05:53:13;98075.38;;;-2.43
11926;BMP180;6022;48.768;18.608;2023-12-20T05:55:40;98081.94;;;-2.42
11926;BMP180;6022;48.768;18.608;2023-12-20T05:58:07;98091.06;;;-2.43
11926;BMP180;6022;48.768;18.608;2023-12-20T06:00:34;98086.88;;;-2.39
11926;BMP180;6022;48.768;18.608;2023-12-20T06:03:02;98100.78;;;-2.32
11926;BMP180;6022;48.768;18.608;2023-12-20T06:05:29;98087.53;;;-2.31
11926;BMP180;6022;48.768;18.608;2023-12-20T06:07:56;98094.06;;;-2.26
11926;BMP180;6022;48.768;18.608;2023-12-20T06:10:29;98096.47;;;-2.22
11926;BMP180;6022;48.768;18.608;2023-12-20T06:12:56;98093.19;;;-2.24
11926;BMP180;6022;48.768;18.608;2023-12-20T06:15:25;98094.09;;;-2.27
11926;BMP180;6022;48.768;18.608;2023-12-20T06:17:53;98086.66;;;-2.29
11926;BMP180;6022;48.768;18.608;2023-12-20T06:20:21;98082.47;;;-2.27
11926;BMP180;6022;48.768;18.608;2023-12-20T06:22:48;98065.88;;;-2.24
11926;BMP180;6022;48.768;18.608;2023-12-20T06:25:16;98073.22;;;-2.19
11926;BMP180;6022;48.768;18.608;2023-12-20T06:27:43;98072.34;;;-2.15
11926;BMP180;6022;48.768;18.608;2023-12-20T06:30:11;98053.19;;;-2.12
11926;BMP180;6022;48.768;18.608;2023-12-20T06:32:38;98049.00;;;-2.08
11926;BMP180;6022;48.768;18.608;2023-12-20T06:35:07;98053.00;;;-2.03
11926;BMP180;6022;48.768;18.608;2023-12-20T06:37:34;98048.84;;;-2.02
11926;BMP180;6022;48.768;18.608;2023-12-20T06:40:02;98057.94;;;-2.00
11926;BMP180;6022;48.768;18.608;2023-12-20T06:42:30;98046.34;;;-2.01
11926;BMP180;6022;48.768;18.608;2023-12-20T06:45:03;98058.00;;;-2.03
11926;BMP180;6022;48.768;18.608;2023-12-20T06:47:33;98062.06;;;-2.00
11926;BMP180;6022;48.768;18.608;2023-12-20T06:50:00;98046.22;;;-1.95
11926;BMP180;6022;48.768;18.608;2023-12-20T06:52:28;98046.91;;;-1.87
11926;BMP180;6022;48.768;18.608;2023-12-20T06:54:55;98046.75;;;-1.80
11926;BMP180;6022;48.768;18.608;2023-12-20T06:57:22;98053.19;;;-1.73
11926;BMP180;6022;48.768;18.608;2023-12-20T06:59:50;98040.59;;;-1.65
11926;BMP180;6022;48.768;18.608;2023-12-20T07:02:19;98047.91;;;-1.58
11926;BMP180;6022;48.768;18.608;2023-12-20T07:04:46;98056.06;;;-1.51
11926;BMP180;6022;48.768;18.608;2023-12-20T07:07:13;98053.34;;;-1.43
11926;BMP180;6022;48.768;18.608;2023-12-20T07:09:40;98049.81;;;-1.33
11926;BMP180;6022;48.768;18.608;2023-12-20T07:12:09;98043.81;;;-1.26
11926;BMP180;6022;48.768;18.608;2023-12-20T07:14:37;98052.75;;;-1.16
11926;BMP180;6022;48.768;18.608;2023-12-20T07:17:04;98050.91;;;-1.10
11926;BMP180;6022;48.768;18.608;2023-12-20T07:19:31;98058.16;;;-1.01
11926;BMP180;6022;48.768;18.608;2023-12-20T07:21:59;98061.34;;;-0.96
11926;BMP180;6022;48.768;18.608;2023-12-20T07:24:27;98059.44;;;-0.86
11926;BMP180;6022;48.768;18.608;2023-12-20T07:26:54;98065.91;;;-0.79
11926;BMP180;6022;48.768;18.608;2023-12-20T07:29:21;98060.00;;;-0.76
11926;BMP180;6022;48.768;18.608;2023-12-20T07:31:49;98052.53;;;-0.76
11926;BMP180;6022;48.768;18.608;2023-12-20T07:34:21;98054.97;;;-0.73
11926;BMP180;6022;48.768;18.608;2023-12-20T07:36:49;98055.13;;;-0.78
11926;BMP180;6022;48.768;18.608;2023-12-20T07:39:16;98045.22;;;-0.81
11926;BMP180;6022;48.768;18.608;2023-12-20T07:41:43;98050.16;;;-0.80
11926;BMP180;6022;48.768;18.608;2023-12-20T07:44:13;98035.97;;;-0.76
11926;BMP180;6022;48.768;18.608;2023-12-20T07:46:40;98050.13;;;-0.78
11926;BMP180;6022;48.768;18.608;2023-12-20T07:49:12;98040.19;;;-0.78
11926;BMP180;6022;48.768;18.608;2023-12-20T07:51:40;98028.56;;;-0.79
11926;BMP180;6022;48.768;18.608;2023-12-20T07:54:09;98032.63;;;-0.76
11926;BMP180;6022;48.768;18.608;2023-12-20T07:56:37;98041.56;;;-0.69
11926;BMP180;6022;48.768;18.608;2023-12-20T07:59:04;98051.38;;;-0.63
11926;BMP180;6022;48.768;18.608;2023-12-20T08:01:33;98043.78;;;-0.58
11926;BMP180;6022;48.768;18.608;2023-12-20T08:04:01;98054.47;;;-0.55
11926;BMP180;6022;48.768;18.608;2023-12-20T08:06:28;98049.44;;;-0.52
11926;BMP180;6022;48.768;18.608;2023-12-20T08:08:55;98032.78;;;-0.50
11926;BMP180;6022;48.768;18.608;2023-12-20T08:11:32;98049.22;;;-0.44
11926;BMP180;6022;48.768;18.608;2023-12-20T08:13:59;98039.13;;;-0.40
11926;BMP180;6022;48.768;18.608;2023-12-20T08:16:27;98048.94;;;-0.34
11926;BMP180;6022;48.768;18.608;2023-12-20T08:18:54;98054.66;;;-0.31
11926;BMP180;6022;48.768;18.608;2023-12-20T08:21:22;98048.06;;;-0.32
11926;BMP180;6022;48.768;18.608;2023-12-20T08:23:49;98045.47;;;-0.29
11926;BMP180;6022;48.768;18.608;2023-12-20T08:26:19;98066.19;;;-0.28
11926;BMP180;6022;48.768;18.608;2023-12-20T08:28:48;98072.88;;;-0.29
11926;BMP180;6022;48.768;18.608;2023-12-20T08:31:19;98073.69;;;-0.28
11926;BMP180;6022;48.768;18.608;2023-12-20T08:33:48;98062.91;;;-0.29
11926;BMP180;6022;48.768;18.608;2023-12-20T08:36:16;98057.03;;;-0.26
11926;BMP180;6022;48.768;18.608;2023-12-20T08:38:45;98062.03;;;-0.26
11926;BMP180;6022;48.768;18.608;2023-12-20T08:41:13;98065.38;;;-0.27
11926;BMP180;6022;48.768;18.608;2023-12-20T08:43:40;98068.78;;;-0.31
11926;BMP180;6022;48.768;18.608;2023-12-20T08:46:08;98067.06;;;-0.29
11926;BMP180;6022;48.768;18.608;2023-12-20T08:48:36;98069.59;;;-0.31
11926;BMP180;6022;48.768;18.608;2023-12-20T08:51:05;98072.88;;;-0.29
11926;BMP180;6022;48.768;18.608;2023-12-20T08:53:36;98081.16;;;-0.28
11926;BMP180;6022;48.768;18.608;2023-12-20T08:56:06;98072.06;;;-0.29
11926;BMP180;6022;48.768;18.608;2023-12-20T08:58:34;98078.66;;;-0.28
11926;BMP180;6022;48.768;18.608;2023-12-20T09:01:03;98082.81;;;-0.27
11926;BMP180;6022;48.768;18.608;2023-12-20T09:03:30;98073.69;;;-0.28
11926;BMP180;6022;48.768;18.608;2023-12-20T09:06:01;98074.56;;;-0.29
11926;BMP180;6022;48.768;18.608;2023-12-20T09:08:32;98065.44;;;-0.30
11926;BMP180;6022;48.768;18.608;2023-12-20T09:11:00;98069.56;;;-0.29
11926;BMP180;6022;48.768;18.608;2023-12-20T09:13:29;98076.13;;;-0.27
11926;BMP180;6022;48.768;18.608;2023-12-20T09:15:57;98081.84;;;-0.23
11926;BMP180;6022;48.768;18.608;2023-12-20T09:18:24;98081.00;;;-0.22
11926;BMP180;6022;48.768;18.608;2023-12-20T09:20:53;98069.38;;;-0.22
11926;BMP180;6022;48.768;18.608;2023-12-20T09:23:20;98079.28;;;-0.20
11926;BMP180;6022;48.768;18.608;2023-12-20T09:25:48;98071.75;;;-0.19
11926;BMP180;6022;48.768;18.608;2023-12-20T09:28:15;98075.91;;;-0.18
11926;BMP180;6022;48.768;18.608;2023-12-20T09:30:42;98063.41;;;-0.16
11926;BMP180;6022;48.768;18.608;2023-12-20T09:33:12;98059.06;;;-0.10
11926;BMP180;6022;48.768;18.608;2023-12-20T09:35:39;98048.91;;;-0.04
11926;BMP180;6022;48.768;18.608;2023-12-20T09:38:07;98047.13;;;0.01
11926;BMP180;6022;48.768;18.608;2023-12-20T09:40:36;98051.91;;;0.08
11926;BMP180;6022;48.768;18.608;2023-12-20T09:43:11;98049.22;;;0.14
11926;BMP180;6022;48.768;18.608;2023-12-20T09:45:41;98042.50;;;0.16
11926;BMP180;6022;48.768;18.608;2023-12-20T09:48:17;98039.94;;;0.19
11926;BMP180;6022;48.768;18.608;2023-12-20T09:50:46;98017.38;;;0.22
11926;BMP180;6022;48.768;18.608;2023-12-20T09:53:21;98019.88;;;0.22
11926;BMP180;6022;48.768;18.608;2023-12-20T09:55:52;98027.22;;;0.28
11926;BMP180;6022;48.768;18.608;2023-12-20T09:58:19;98039.53;;;0.33
11926;BMP180;6022;48.768;18.608;2023-12-20T10:00:47;98034.59;;;0.31
11926;BMP180;6022;48.768;18.608;2023-12-20T10:03:19;98037.00;;;0.34
11926;BMP180;6022;48.768;18.608;2023-12-20T10:05:54;98031.88;;;0.38
11926;BMP180;6022;48.768;18.608;2023-12-20T10:08:24;98023.38;;;0.44
11926;BMP180;6022;48.768;18.608;2023-12-20T10:10:52;98014.94;;;0.48
11926;BMP180;6022;48.768;18.608;2023-12-20T10:13:20;98015.53;;;0.56
11926;BMP180;6022;48.768;18.608;2023-12-20T10:15:50;98017.94;;;0.59
11926;BMP180;6022;48.768;18.608;2023-12-20T10:18:17;98009.66;;;0.58
11926;BMP180;6022;48.768;18.608;2023-12-20T10:20:46;98008.75;;;0.59
11926;BMP180;6022;48.768;18.608;2023-12-20T10:23:15;98004.66;;;0.58
11926;BMP180;6022;48.768;18.608;2023-12-20T10:25:43;97996.34;;;0.58
11926;BMP180;6022;48.768;18.608;2023-12-20T10:28:13;97992.78;;;0.65
11926;BMP180;6022;48.768;18.608;2023-12-20T10:30:41;97994.31;;;0.69
11926;BMP180;6022;48.768;18.608;2023-12-20T10:33:10;97991.63;;;0.74
11926;BMP180;6022;48.768;18.608;2023-12-20T10:35:39;97990.66;;;0.78
11926;BMP180;6022;48.768;18.608;2023-12-20T10:38:12;97981.72;;;0.73
11926;BMP180;6022;48.768;18.608;2023-12-20T10:40:42;97993.31;;;0.74
11926;BMP180;6022;48.768;18.608;2023-12-20T10:43:11;97984.13;;;0.74
11926;BMP180;6022;48.768;18.608;2023-12-20T10:45:53;97985.75;;;0.77
11926;BMP180;6022;48.768;18.608;2023-12-20T10:48:22;97989.06;;;0.77
11926;BMP180;6022;48.768;18.608;2023-12-20T10:50:57;97985.75;;;0.77
11926;BMP180;6022;48.768;18.608;2023-12-20T10:53:25;97990.97;;;0.70
11926;BMP180;6022;48.768;18.608;2023-12-20T10:55:55;97985.25;;;0.66
11926;BMP180;6022;48.768;18.608;2023-12-20T10:58:26;97989.25;;;0.72
11926;BMP180;6022;48.768;18.608;2023-12-20T11:01:02;97986.00;;;0.70
11926;BMP180;6022;48.768;18.608;2023-12-20T11:03:36;97987.47;;;0.75
11926;BMP180;6022;48.768;18.608;2023-12-20T11:09:29;97985.78;;;0.75
11926;BMP180;6022;48.768;18.608;2023-12-20T11:12:21;97982.31;;;0.79
11926;BMP180;6022;48.768;18.608;2023-12-20T11:14:53;97980.50;;;0.84
11926;BMP180;6022;48.768;18.608;2023-12-20T11:17:22;97981.03;;;0.94
11926;BMP180;6022;48.768;18.608;2023-12-20T11:22:26;97979.03;;;1.03
11926;BMP180;6022;48.768;18.608;2023-12-20T11:24:54;97972.19;;;1.08
11926;BMP180;6022;48.768;18.608;2023-12-20T11:27:24;97969.91;;;1.02
11926;BMP180;6022;48.768;18.608;2023-12-20T11:29:54;97968.19;;;1.04
11926;BMP180;6022;48.768;18.608;2023-12-20T11:34:55;97955.56;;;1.09
11926;BMP180;6022;48.768;18.608;2023-12-20T11:37:30;97951.25;;;1.12
11926;BMP180;6022;48.768;18.608;2023-12-20T11:40:06;97956.19;;;1.13
11926;BMP180;6022;48.768;18.608;2023-12-20T11:42:49;97962.88;;;1.13
11926;BMP180;6022;48.768;18.608;2023-12-20T11:45:23;97967.75;;;1.16
11926;BMP180;6022;48.768;18.608;2023-12-20T11:47:54;97958.59;;;1.16
11926;BMP180;6022;48.768;18.608;2023-12-20T11:50:22;97957.72;;;1.17
11926;BMP180;6022;48.768;18.608;2023-12-20T11:52:52;97955.19;;;1.19
11926;BMP180;6022;48.768;18.608;2023-12-20T11:55:20;97944.34;;;1.20
11926;BMP180;6022;48.768;18.608;2023-12-20T11:57:48;97954.31;;;1.20
11926;BMP180;6022;48.768;18.608;2023-12-20T12:00:16;97945.94;;;1.21
11926;BMP180;6022;48.768;18.608;2023-12-20T12:02:56;97955.09;;;1.22
11926;BMP180;6022;48.768;18.608;2023-12-20T12:05:23;97939.22;;;1.23
11926;BMP180;6022;48.768;18.608;2023-12-20T12:07:53;97934.22;;;1.23
11926;BMP180;6022;48.768;18.608;2023-12-20T12:10:21;97927.69;;;1.19
11926;BMP180;6022;48.768;18.608;2023-12-20T12:12:50;97930.97;;;1.21
11926;BMP180;6022;48.768;18.608;2023-12-20T12:15:17;97931.91;;;1.18
11926;BMP180;6022;48.768;18.608;2023-12-20T12:17:52;97926.09;;;1.18
11926;BMP180;6022;48.768;18.608;2023-12-20T12:20:20;97915.97;;;1.21
11926;BMP180;6022;48.768;18.608;2023-12-20T12:23:02;97908.47;;;1.21
11926;BMP180;6022;48.768;18.608;2023-12-20T12:25:32;97901.78;;;1.21
11926;BMP180;6022;48.768;18.608;2023-12-20T12:28:00;97902.63;;;1.22
11926;BMP180;6022;48.768;18.608;2023-12-20T12:30:28;97896.75;;;1.23
11926;BMP180;6022;48.768;18.608;2023-12-20T12:33:08;97892.53;;;1.25
11926;BMP180;6022;48.768;18.608;2023-12-20T12:35:35;97887.53;;;1.25
11926;BMP180;6022;48.768;18.608;2023-12-20T12:38:04;97880.66;;;1.31
11926;BMP180;6022;48.768;18.608;2023-12-20T12:40:35;97885.69;;;1.30
11926;BMP180;6022;48.768;18.608;2023-12-20T12:43:03;97878.16;;;1.31
11926;BMP180;6022;48.768;18.608;2023-12-20T12:45:32;97882.78;;;1.40
11926;BMP180;6022;48.768;18.608;2023-12-20T12:48:00;97877.59;;;1.46
11926;BMP180;6022;48.768;18.608;2023-12-20T12:50:27;97870.91;;;1.47
11926;BMP180;6022;48.768;18.608;2023-12-20T12:52:56;97869.28;;;1.46
11926;BMP180;6022;48.768;18.608;2023-12-20T12:55:23;97875.84;;;1.48
11926;BMP180;6022;48.768;18.608;2023-12-20T12:57:50;97874.22;;;1.47
11926;BMP180;6022;48.768;18.608;2023-12-20T13:00:19;97879.03;;;1.51
11926;BMP180;6022;48.768;18.608;2023-12-20T13:02:47;97888.97;;;1.53
11926;BMP180;6022;48.768;18.608;2023-12-20T13:05:16;97885.69;;;1.52
11926;BMP180;6022;48.768;18.608;2023-12-20T13:07:46;97883.94;;;1.54
11926;BMP180;6022;48.768;18.608;2023-12-20T13:10:14;97892.22;;;1.55
11926;BMP180;6022;48.768;18.608;2023-12-20T13:12:44;97905.56;;;1.55
11926;BMP180;6022;48.768;18.608;2023-12-20T13:15:11;97891.34;;;1.57
11926;BMP180;6022;48.768;18.608;2023-12-20T13:17:38;97882.94;;;1.58
11926;BMP180;6022;48.768;18.608;2023-12-20T13:20:07;97879.59;;;1.59
11926;BMP180;6022;48.768;18.608;2023-12-20T13:22:35;97892.84;;;1.61
11926;BMP180;6022;48.768;18.608;2023-12-20T13:25:03;97877.09;;;1.59
11926;BMP180;6022;48.768;18.608;2023-12-20T13:27:31;97885.34;;;1.61
11926;BMP180;6022;48.768;18.608;2023-12-20T13:29:58;97864.22;;;1.68
11926;BMP180;6022;48.768;18.608;2023-12-20T13:32:25;97870.78;;;1.72
11926;BMP180;6022;48.768;18.608;2023-12-20T13:34:53;97881.16;;;1.83
11926;BMP180;6022;48.768;18.608;2023-12-20T13:37:20;97881.34;;;2.00
11926;BMP180;6022;48.768;18.608;2023-12-20T13:39:48;97867.72;;;2.07
11926;BMP180;6022;48.768;18.608;2023-12-20T13:42:15;97858.81;;;2.21
11926;BMP180;6022;48.768;18.608;2023-12-20T13:44:43;97860.03;;;2.32
11926;BMP180;6022;48.768;18.608;2023-12-20T13:47:11;97862.88;;;2.43
11926;BMP180;6022;48.768;18.608;2023-12-20T13:49:38;97873.16;;;2.37
11926;BMP180;6022;48.768;18.608;2023-12-20T13:52:05;97880.75;;;2.36
11926;BMP180;6022;48.768;18.608;2023-12-20T13:54:33;97879.91;;;2.35
11926;BMP180;6022;48.768;18.608;2023-12-20T13:57:00;97881.91;;;2.27
11926;BMP180;6022;48.768;18.608;2023-12-20T13:59:42;97877.00;;;2.24
11926;BMP180;6022;48.768;18.608;2023-12-20T14:02:09;97876.38;;;2.20
11926;BMP180;6022;48.768;18.608;2023-12-20T14:04:37;97877.19;;;2.20
11926;BMP180;6022;48.768;18.608;2023-12-20T14:07:10;97885.75;;;2.15
11926;BMP180;6022;48.768;18.608;2023-12-20T14:09:40;97897.25;;;2.19
11926;BMP180;6022;48.768;18.608;2023-12-20T14:12:14;97902.25;;;2.19
11926;BMP180;6022;48.768;18.608;2023-12-20T14:14:41;97896.47;;;2.18
11926;BMP180;6022;48.768;18.608;2023-12-20T14:17:09;97899.00;;;2.17
11926;BMP180;6022;48.768;18.608;2023-12-20T14:19:36;97909.03;;;2.17
11926;BMP180;6022;48.768;18.608;2023-12-20T14:22:03;97919.03;;;2.17
11926;BMP180;6022;48.768;18.608;2023-12-20T14:24:31;97919.03;;;2.17
11926;BMP180;6022;48.768;18.608;2023-12-20T14:26:59;97937.38;;;2.17
11926;BMP180;6022;48.768;18.608;2023-12-20T14:29:26;97931.53;;;2.17